Ora Direzione Vento Velocita' Vento Media Vento Raffica Max. Temperatura Wind Chill Pioggia Pressione
04:04:01.0259 °(W)14.0 Kts14.5 Kts24.5 Kts15.0 °C14.0 °C0.0 mm1005.8 Hpa
03:43:53.0261 °(W)15.9 Kts16.5 Kts24.5 Kts14.9 °C15.9 °C0.0 mm1006.4 Hpa
03:23:46.0263 °(W)20.6 Kts19.5 Kts24.5 Kts14.9 °C20.6 °C0.0 mm1006.6 Hpa
03:03:46.0256 °(WSW)18.6 Kts16.4 Kts24.5 Kts14.3 °C18.6 °C0.0 mm1007.1 Hpa
02:43:43.0242 °(WSW)9.7 Kts9.0 Kts24.5 Kts14.5 °C9.7 °C0.0 mm1007.7 Hpa
02:23:38.0262 °(W)14.4 Kts13.1 Kts24.5 Kts14.5 °C14.4 °C0.0 mm1008.1 Hpa
02:03:31.0274 °(W)13.4 Kts14.3 Kts24.5 Kts14.4 °C13.4 °C0.0 mm1008.4 Hpa
01:43:37.0281 °(W)12.2 Kts12.8 Kts24.5 Kts14.3 °C12.2 °C0.0 mm1008.5 Hpa
01:23:25.0276 °(W)21.4 Kts20.2 Kts24.5 Kts14.2 °C21.4 °C0.0 mm1008.6 Hpa
01:02:36.0284 °(WNW)19.6 Kts20.2 Kts24.5 Kts14.1 °C19.6 °C0.0 mm1008.8 Hpa
00:42:34.0324 °(NW)2.7 Kts3.0 Kts9.9 Kts11.7 °C2.7 °C0.0 mm1009.3 Hpa
00:22:33.0126 °(SE)4.5 Kts4.5 Kts6.4 Kts10.0 °C8.8 °C0.0 mm1009.5 Hpa
00:02:31.096 °(E)3.4 Kts3.0 Kts4.1 Kts9.6 °C3.4 °C0.0 mm1009.9 Hpa
23:42:25.075 °(ENE)3.7 Kts4.1 Kts17.1 Kts9.4 °C9.3 °C0.0 mm1010.2 Hpa
23:22:23.030 °(NNE)2.7 Kts2.2 Kts17.1 Kts9.7 °C2.7 °C0.0 mm1010.4 Hpa
23:02:33.0297 °(WNW)0.8 Kts2.0 Kts17.1 Kts12.3 °C0.8 °C0.0 mm1010.3 Hpa
22:42:31.0258 °(WSW)7.1 Kts6.3 Kts17.1 Kts13.3 °C7.1 °C0.0 mm1010.2 Hpa
22:22:27.0256 °(WSW)6.7 Kts7.6 Kts17.1 Kts13.3 °C6.7 °C0.0 mm1010.5 Hpa
22:04:01.0243 °(WSW)6.5 Kts7.1 Kts17.1 Kts13.2 °C6.5 °C0.0 mm1010.9 Hpa
21:42:25.0245 °(WSW)10.8 Kts9.5 Kts17.1 Kts13.2 °C10.8 °C0.0 mm1011.2 Hpa